Decoded Metar for CYXT (TERRACE in BC, CANADA) (IATA:YXT) | Meteo·Mobile Aviation Weather
aviador You're here:

CYXT Decoded Metar

TERRACE in BC, CANADA
Report Time2018-12-14 23:23:00
UTC Time2018-12-14 23:30:21
Flight Rules ifr IFR
Wind330° at 06 kt
W.Decomp.*RWY 33: 5.6 kt HW 2.2 kt LCW
RWY 03: 0.8 kt HW 5.9 kt LCW
W.Rank330° ranks 24
Current wind is above 330° avg. (5.1)
Visibility2414 m
Phenomena:Light Snow
Clouds:N/A
Ceiling1,400 ft
Temp-1°C (ISA -15)
Dew Point-1°C (100% RH)
AAT-5.3°C
QNH988 hPa
Density Alt-128 ft
Elevation712 ft
Report Wrong Elevation
Raw Report
SPECI CYXT 142323Z 33006KT 1 1/2SM -SN VV014 M01/M01 A2919 RMK SN8 SLP894=

Extra information for CYXT:More info

Metar Taf Metar & Taf Last 4 Metars F.Rules Stats Wind Profile Meteogram Temp Stats Airport Information Weather charts Add Link Nearby VenuesMetar ALERT Operation Metar Decoded Social comments